Time;durP1;ratioP1;P1;durP2;ratioP2;P2;SDS_P1;SDS_P2;PMS_P1;PMS_P2;Temp;Humidity;BMP_temperature;BMP_pressure;BME280_temperature;BME280_humidity;BME280_pressure;Samples;Min_cycle;Max_cycle;Signal;HPM_P1;HPM_P2
2023/10/02 00:01:58;;;;;;;14.32;7.40;;;;;;;17.09;59.78;97394.53;5058554;28;20190;-80
2023/10/02 00:04:34;;;;;;;14.65;7.15;;;;;;;17.09;59.89;97384.00;5058755;28;20045;-80
2023/10/02 00:07:07;;;;;;;16.05;6.85;;;;;;;17.11;59.59;97391.72;5057952;28;20044;-80
2023/10/02 00:09:36;;;;;;;14.65;6.88;;;;;;;17.12;59.68;97393.34;5057705;28;20060;-80
2023/10/02 00:12:11;;;;;;;12.85;6.78;;;;;;;17.12;59.78;97387.25;5058244;28;20496;-80
2023/10/02 00:14:40;;;;;;;12.35;6.25;;;;;;;17.12;59.79;97393.34;5058172;28;20052;-80
2023/10/02 00:17:14;;;;;;;13.63;6.28;;;;;;;17.12;59.78;97381.97;5057859;28;20045;-80
2023/10/02 00:19:45;;;;;;;10.98;5.57;;;;;;;17.14;60.00;97380.75;5058595;28;20098;-80
2023/10/02 00:24:57;;;;;;;12.10;6.15;;;;;;;17.15;59.92;97377.13;5056774;28;20107;-80
2023/10/02 00:27:26;;;;;;;11.23;6.60;;;;;;;17.16;60.10;97372.66;5058787;28;20144;-80
2023/10/02 00:29:58;;;;;;;12.43;6.43;;;;;;;17.16;60.09;97373.44;5058594;28;20053;-80
2023/10/02 00:32:26;;;;;;;12.32;6.68;;;;;;;17.18;60.03;97378.53;5058356;28;20473;-80
2023/10/02 00:34:58;;;;;;;13.15;6.25;;;;;;;17.19;59.94;97375.69;5057953;28;20044;-80
2023/10/02 00:37:43;;;;;;;12.15;6.30;;;;;;;17.19;59.85;97373.06;5057860;28;20048;-80
2023/10/02 00:40:15;;;;;;;13.13;7.07;;;;;;;17.20;60.13;97374.66;5057877;28;20053;-79
2023/10/02 00:42:41;;;;;;;14.90;7.35;;;;;;;17.19;59.89;97375.69;5057562;28;20045;-80
2023/10/02 00:45:09;;;;;;;12.00;6.55;;;;;;;17.20;60.01;97372.03;5058671;28;20574;-80
2023/10/02 00:47:48;;;;;;;14.00;7.15;;;;;;;17.20;60.15;97365.94;5064664;28;20076;-79
2023/10/02 00:50:20;;;;;;;12.57;7.25;;;;;;;17.17;60.20;97361.91;5064423;28;20053;-80
2023/10/02 00:52:55;;;;;;;15.05;6.85;;;;;;;17.18;60.43;97360.88;5060670;28;20132;-80
2023/10/02 00:55:25;;;;;;;12.70;6.30;;;;;;;17.16;60.14;97365.53;5056189;28;20136;-80
2023/10/02 00:57:56;;;;;;;14.38;7.75;;;;;;;17.13;60.58;97367.78;5056991;28;20107;-80
2023/10/02 01:00:35;;;;;;;14.68;7.07;;;;;;;17.09;60.82;97364.75;5057618;28;20128;-80
2023/10/02 01:03:05;;;;;;;13.45;7.10;;;;;;;17.06;60.85;97357.25;5057114;28;20249;-80
2023/10/02 01:05:47;;;;;;;15.18;7.72;;;;;;;17.03;61.14;97355.84;5056580;28;20045;-80
2023/10/02 01:08:42;;;;;;;13.38;7.60;;;;;;;17.00;61.16;97353.59;5057250;28;20049;-79
2023/10/02 01:11:13;;;;;;;14.75;7.30;;;;;;;16.98;61.54;97352.19;5056693;28;20048;-80
2023/10/02 01:13:42;;;;;;;14.30;7.32;;;;;;;16.96;61.38;97352.38;5056678;28;20049;-80
2023/10/02 01:16:13;;;;;;;13.38;6.97;;;;;;;16.95;61.16;97356.03;5056616;28;20140;-80
2023/10/02 01:18:41;;;;;;;13.75;7.35;;;;;;;16.95;61.32;97353.41;5056648;28;20053;-80
2023/10/02 01:21:11;;;;;;;16.60;8.20;;;;;;;16.95;61.60;97350.78;5056096;28;20076;-80
2023/10/02 01:24:06;;;;;;;12.40;6.93;;;;;;;16.95;61.82;97355.25;5055643;28;20091;-80
2023/10/02 01:26:37;;;;;;;14.02;7.78;;;;;;;16.96;61.59;97354.22;5055967;28;20051;-79
2023/10/02 01:29:06;;;;;;;11.40;6.70;;;;;;;16.97;61.50;97350.59;5056414;28;20057;-80
2023/10/02 01:31:41;;;;;;;14.80;7.28;;;;;;;16.97;61.30;97350.59;5056214;28;20056;-80
2023/10/02 01:34:33;;;;;;;15.73;7.50;;;;;;;16.97;61.59;97347.94;5056510;28;20083;-80
2023/10/02 01:37:00;;;;;;;15.32;7.50;;;;;;;16.98;61.43;97349.56;5056407;28;20139;-80
2023/10/02 01:39:29;;;;;;;13.00;7.18;;;;;;;17.00;61.42;97347.53;5056598;28;20056;-80
2023/10/02 01:41:57;;;;;;;15.93;7.80;;;;;;;16.98;61.42;97347.72;5055962;28;20508;-80
2023/10/02 01:44:24;;;;;;;11.40;6.88;;;;;;;16.95;61.60;97345.50;5055974;28;20045;-80
2023/10/02 01:46:52;;;;;;;12.10;7.10;;;;;;;16.91;61.75;97343.47;5055666;28;20140;-79
2023/10/02 01:49:27;;;;;;;14.75;7.22;;;;;;;16.87;61.79;97346.50;5055922;28;20063;-80
2023/10/02 01:51:57;;;;;;;12.55;7.45;;;;;;;16.82;61.80;97351.59;5057571;28;20053;-80
2023/10/02 01:54:29;;;;;;;14.45;6.88;;;;;;;16.75;62.15;97356.03;5064705;28;20044;-80
2023/10/02 01:56:59;;;;;;;12.45;6.45;;;;;;;16.74;62.11;97350.94;5065414;28;20052;-80
2023/10/02 01:59:28;;;;;;;13.15;6.78;;;;;;;16.78;61.98;97349.53;5063037;28;20053;-80
2023/10/02 02:01:57;;;;;;;11.10;6.47;;;;;;;16.83;61.77;97347.91;5055766;28;20045;-79
2023/10/02 02:04:28;;;;;;;13.70;7.18;;;;;;;16.89;61.69;97341.84;5056083;28;20057;-79
2023/10/02 02:06:58;;;;;;;13.73;6.22;;;;;;;16.93;61.62;97346.72;5056179;28;20507;-80
2023/10/02 02:09:30;;;;;;;12.68;6.82;;;;;;;16.95;61.43;97344.69;5055876;28;20075;-80
2023/10/02 02:12:08;;;;;;;13.85;7.07;;;;;;;16.95;61.36;97342.06;5056091;28;20056;-80
2023/10/02 02:14:41;;;;;;;13.45;6.70;;;;;;;16.96;61.34;97346.31;5055600;28;20055;-80
2023/10/02 02:17:11;;;;;;;11.27;6.70;;;;;;;16.94;61.27;97343.88;5056614;28;20427;-80
2023/10/02 02:19:47;;;;;;;13.43;6.88;;;;;;;16.97;61.33;97345.31;5055641;28;20052;-80
2023/10/02 02:22:17;;;;;;;11.00;6.25;;;;;;;16.95;61.30;97342.06;5055696;28;20110;-80
2023/10/02 02:24:46;;;;;;;12.10;6.88;;;;;;;16.91;61.32;97343.47;5055529;28;20045;-80
2023/10/02 02:27:17;;;;;;;12.55;6.90;;;;;;;16.87;61.30;97343.88;5055972;28;20045;-80
2023/10/02 02:29:45;;;;;;;16.73;8.23;;;;;;;16.81;61.64;97338.59;5055874;28;20041;-80
2023/10/02 02:32:14;;;;;;;15.57;8.45;;;;;;;16.72;61.88;97337.16;5055826;28;20470;-80
2023/10/02 02:34:42;;;;;;;16.90;7.53;;;;;;;16.63;62.08;97339.19;5055221;28;20520;-80
2023/10/02 02:37:09;;;;;;;13.75;7.25;;;;;;;16.59;62.30;97330.06;5055725;28;20504;-80
2023/10/02 02:39:38;;;;;;;14.10;8.07;;;;;;;16.54;62.53;97332.50;5055063;28;20080;-80
2023/10/02 02:50:07;;;;;;;14.05;7.28;;;;;;;16.35;63.51;97319.09;6111701;22;20851;-79
2023/10/02 02:52:35;;;;;;;12.48;6.97;;;;;;;16.32;63.66;97316.88;5042144;28;20152;-77
2023/10/02 02:55:12;;;;;;;13.98;7.60;;;;;;;16.31;63.76;97324.97;5051928;28;20057;-77
2023/10/02 02:57:45;;;;;;;14.98;7.80;;;;;;;16.26;64.11;97326.38;5051838;28;20049;-77
2023/10/02 03:00:30;;;;;;;14.48;8.07;;;;;;;16.23;63.94;97325.97;5051721;28;20057;-77
2023/10/02 03:03:00;;;;;;;16.60;7.82;;;;;;;16.20;64.35;97329.81;5051951;28;20049;-77
2023/10/02 03:05:40;;;;;;;16.63;7.85;;;;;;;16.19;64.83;97333.44;5072143;28;20055;-78
2023/10/02 03:08:11;;;;;;;15.25;8.40;;;;;;;16.17;64.51;97326.78;5070832;28;20053;-77
2023/10/02 03:10:39;;;;;;;16.00;8.73;;;;;;;16.17;64.64;97332.03;5053067;28;20056;-77
2023/10/02 03:13:14;;;;;;;17.02;7.20;;;;;;;16.22;64.46;97334.88;5051944;28;20115;-77
2023/10/02 03:15:48;;;;;;;17.95;7.78;;;;;;;16.28;64.19;97337.50;5051789;28;20049;-77
2023/10/02 03:18:31;;;;;;;14.23;7.10;;;;;;;16.30;64.19;97337.31;5052045;28;20107;-77
2023/10/02 03:21:13;;;;;;;19.00;7.53;;;;;;;16.31;63.66;97332.84;5052915;28;20071;-77
2023/10/02 03:23:42;;;;;;;12.82;7.05;;;;;;;16.26;63.85;97338.72;5064747;28;20076;-77
2023/10/02 03:26:26;;;;;;;14.18;6.93;;;;;;;16.20;64.40;97336.88;5065294;28;20052;-77
2023/10/02 03:29:00;;;;;;;11.40;6.53;;;;;;;16.21;64.39;97339.34;5055273;28;20111;-77
2023/10/02 03:31:37;;;;;;;14.70;7.57;;;;;;;16.22;63.73;97343.59;5051831;28;20056;-77
2023/10/02 03:34:25;;;;;;;17.73;7.65;;;;;;;16.21;63.66;97343.78;5051718;28;20213;-77
2023/10/02 03:36:59;;;;;;;20.27;8.52;;;;;;;16.17;63.40;97345.19;5055443;28;20419;-77
2023/10/02 03:42:15;;;;;;;20.20;8.20;;;;;;;16.05;63.45;97345.78;5055141;28;20132;-77
2023/10/02 03:44:43;;;;;;;14.60;7.43;;;;;;;16.02;63.73;97348.78;5055007;28;20045;-77
2023/10/02 03:47:13;;;;;;;15.52;7.22;;;;;;;15.97;64.13;97342.50;5055246;28;20107;-77
2023/10/02 03:49:42;;;;;;;12.05;6.90;;;;;;;15.90;64.03;97341.69;5054805;28;20080;-77
2023/10/02 03:52:14;;;;;;;14.63;7.78;;;;;;;15.79;64.48;97345.69;5054592;28;20515;-77
2023/10/02 03:54:43;;;;;;;15.85;8.02;;;;;;;15.71;64.70;97348.44;5054634;28;20118;-77
2023/10/02 03:57:37;;;;;;;11.95;6.57;;;;;;;15.64;64.91;97338.72;5054759;28;20095;-77
2023/10/02 04:00:12;;;;;;;13.20;7.30;;;;;;;15.64;64.51;97340.53;5054606;28;20490;-77
2023/10/02 04:02:43;;;;;;;16.58;7.57;;;;;;;15.63;64.91;97336.25;5054499;28;20080;-79
2023/10/02 04:05:12;;;;;;;17.35;7.88;;;;;;;15.59;65.07;97332.41;5054618;28;20045;-79
2023/10/02 04:07:41;;;;;;;14.63;7.53;;;;;;;15.54;65.36;97332.97;5054660;28;20053;-79
2023/10/02 04:10:09;;;;;;;16.20;7.32;;;;;;;15.52;65.27;97334.19;5054514;28;20059;-77
2023/10/02 04:12:50;;;;;;;15.82;7.47;;;;;;;15.55;65.19;97334.63;5054500;28;20099;-77
2023/10/02 04:15:18;;;;;;;12.05;6.90;;;;;;;15.60;65.10;97342.72;5055080;28;20056;-77
2023/10/02 04:17:49;;;;;;;18.85;8.63;;;;;;;15.58;65.28;97339.47;5063519;28;20540;-77
2023/10/02 04:20:27;;;;;;;12.10;6.83;;;;;;;15.56;65.50;97341.50;5056970;28;20049;-77
2023/10/02 04:23:18;;;;;;;16.05;8.48;;;;;;;15.55;66.01;97345.13;5054011;28;20543;-77
2023/10/02 04:25:44;;;;;;;13.60;8.10;;;;;;;15.55;65.90;97337.25;5053977;28;20512;-77
2023/10/02 04:28:12;;;;;;;16.23;7.97;;;;;;;15.55;65.80;97339.88;5054218;28;20068;-76
2023/10/02 04:30:38;;;;;;;13.93;7.30;;;;;;;15.57;65.04;97335.25;5053961;28;20497;-77
2023/10/02 04:33:08;;;;;;;15.75;8.10;;;;;;;15.57;64.77;97343.13;5053881;28;20061;-77
2023/10/02 04:35:44;;;;;;;16.38;7.80;;;;;;;15.52;64.62;97344.72;5053881;28;20489;-77
2023/10/02 04:38:14;;;;;;;13.43;7.45;;;;;;;15.53;64.12;97346.34;5053814;28;20096;-77
2023/10/02 04:40:49;;;;;;;12.35;6.88;;;;;;;15.55;64.00;97339.06;5053778;28;20049;-76
2023/10/02 04:43:23;;;;;;;16.33;8.25;;;;;;;15.55;63.45;97345.13;5054329;28;20053;-77
2023/10/02 04:45:52;;;;;;;14.27;7.93;;;;;;;15.53;63.72;97346.34;5053940;28;20048;-79
2023/10/02 04:48:26;;;;;;;15.10;7.90;;;;;;;15.49;63.57;97345.91;5053545;28;20084;-79
2023/10/02 04:50:56;;;;;;;16.42;7.78;;;;;;;15.47;63.56;97345.28;5053445;28;20084;-79
2023/10/02 04:53:25;;;;;;;16.48;8.57;;;;;;;15.46;63.59;97346.31;5053976;28;20427;-79
2023/10/02 04:56:07;;;;;;;13.95;7.40;;;;;;;15.48;63.48;97348.72;5053539;28;20091;-79
2023/10/02 04:58:39;;;;;;;13.98;6.78;;;;;;;15.49;63.91;97351.16;5053837;28;20054;-79
2023/10/02 05:01:28;;;;;;;18.23;8.43;;;;;;;15.47;64.19;97347.91;5053602;28;20068;-79
2023/10/02 05:04:02;;;;;;;16.50;9.00;;;;;;;15.43;64.79;97359.81;5053599;28;20063;-79
2023/10/02 05:06:52;;;;;;;14.18;7.30;;;;;;;15.41;65.25;97353.94;5053975;28;20492;-79
2023/10/02 05:09:26;;;;;;;15.43;8.18;;;;;;;15.40;65.43;97342.63;5053681;28;20049;-79
2023/10/02 05:12:03;;;;;;;15.63;7.63;;;;;;;15.44;65.47;97348.31;5053902;28;20053;-79
2023/10/02 05:14:33;;;;;;;15.55;8.18;;;;;;;15.44;65.58;97348.31;5053179;28;20041;-80
2023/10/02 05:17:19;;;;;;;17.88;8.52;;;;;;;15.39;66.26;97348.06;5053644;28;20443;-80
2023/10/02 05:19:56;;;;;;;15.40;7.90;;;;;;;15.32;66.35;97344.59;5053115;28;20110;-80
2023/10/02 05:22:27;;;;;;;17.13;8.20;;;;;;;15.27;66.39;97345.19;5053439;28;20060;-79
2023/10/02 05:24:59;;;;;;;15.95;8.35;;;;;;;15.22;66.57;97343.13;5053164;28;20048;-79
2023/10/02 05:27:30;;;;;;;13.77;7.93;;;;;;;15.18;66.65;97355.03;5054468;28;20099;-79
2023/10/02 05:29:59;;;;;;;14.70;7.82;;;;;;;15.13;66.84;97346.09;5053514;28;20416;-79
2023/10/02 05:32:31;;;;;;;15.93;8.68;;;;;;;15.06;67.23;97351.31;5053086;28;20060;-79
2023/10/02 05:35:03;;;;;;;13.68;7.97;;;;;;;15.01;67.23;97348.44;5054151;28;20103;-79
2023/10/02 05:37:39;;;;;;;15.40;8.18;;;;;;;14.98;67.66;97354.09;5053291;28;20053;-79
2023/10/02 05:40:37;;;;;;;13.07;7.65;;;;;;;14.96;68.11;97361.34;5052926;28;20049;-80
2023/10/02 05:43:10;;;;;;;12.60;6.88;;;;;;;15.00;67.83;97358.16;5052910;28;20107;-79
2023/10/02 05:45:40;;;;;;;15.32;7.85;;;;;;;15.07;67.53;97357.41;5052967;28;20462;-79
2023/10/02 05:48:14;;;;;;;20.35;7.90;;;;;;;15.09;67.87;97358.81;5053265;28;20052;-80
2023/10/02 05:50:47;;;;;;;15.60;8.57;;;;;;;15.08;67.93;97370.31;5052729;28;20508;-79
2023/10/02 05:53:15;;;;;;;14.52;7.55;;;;;;;15.08;67.61;97364.25;5052645;28;20052;-80
2023/10/02 05:56:06;;;;;;;16.95;8.30;;;;;;;15.09;67.02;97361.44;5052341;28;20045;-79
2023/10/02 05:58:36;;;;;;;14.33;8.07;;;;;;;15.13;66.71;97362.69;5052163;28;20049;-80
2023/10/02 06:01:06;;;;;;;16.70;7.88;;;;;;;15.16;66.33;97367.56;5052566;28;20473;-79
2023/10/02 06:03:37;;;;;;;14.60;6.63;;;;;;;15.20;65.75;97371.44;5052384;28;20057;-78
2023/10/02 06:06:17;;;;;;;14.65;7.85;;;;;;;15.28;64.89;97370.44;5052591;28;20128;-79
2023/10/02 06:08:49;;;;;;;17.77;7.55;;;;;;;15.33;63.94;97375.16;5054798;28;20063;-79
2023/10/02 06:11:29;;;;;;;16.98;8.10;;;;;;;15.33;63.37;97367.28;5053442;28;20049;-78
2023/10/02 06:14:09;;;;;;;13.38;7.57;;;;;;;15.38;63.73;97378.00;5071423;28;20049;-80
2023/10/02 06:16:38;;;;;;;17.05;8.50;;;;;;;15.41;62.70;97370.56;5068554;28;20052;-79
2023/10/02 06:19:13;;;;;;;16.88;8.20;;;;;;;15.42;62.78;97371.38;5053895;28;20049;-80
2023/10/02 06:21:46;;;;;;;18.10;8.23;;;;;;;15.45;62.64;97370.97;5055648;28;20048;-79
2023/10/02 06:24:15;;;;;;;14.93;8.30;;;;;;;15.49;62.30;97377.47;5054274;28;20045;-79
2023/10/02 06:26:53;;;;;;;16.05;9.00;;;;;;;15.54;62.23;97375.06;5053641;28;20492;-79
2023/10/02 06:29:23;;;;;;;16.42;8.30;;;;;;;15.62;62.46;97372.28;5065224;28;20492;-79
2023/10/02 06:31:58;;;;;;;15.48;7.95;;;;;;;15.74;62.22;97375.22;5053378;28;20056;-78
2023/10/02 06:34:36;;;;;;;14.48;6.68;;;;;;;15.88;62.83;97376.06;5052945;28;20048;-79
2023/10/02 06:37:11;;;;;;;14.88;7.82;;;;;;;16.04;63.44;97380.19;5053006;28;20123;-79
2023/10/02 06:39:41;;;;;;;12.95;7.47;;;;;;;16.19;63.16;97372.94;5052831;28;20496;-79
2023/10/02 06:42:15;;;;;;;15.23;7.47;;;;;;;16.34;62.53;97370.16;5053191;28;20053;-79
2023/10/02 06:44:53;;;;;;;13.90;7.15;;;;;;;16.54;62.79;97375.44;5052838;28;20140;-77
2023/10/02 06:47:23;;;;;;;15.23;8.02;;;;;;;16.69;62.96;97377.91;5072807;28;20112;-77
2023/10/02 06:49:52;;;;;;;13.45;7.75;;;;;;;16.83;62.55;97376.09;5072322;28;20045;-77
2023/10/02 06:52:22;;;;;;;18.15;8.18;;;;;;;16.96;62.70;97372.66;5060770;28;20056;-77
2023/10/02 06:54:55;;;;;;;15.52;7.47;;;;;;;17.08;62.39;97381.59;5051875;28;20088;-77
2023/10/02 06:57:25;;;;;;;17.40;7.55;;;;;;;17.21;62.07;97381.56;5052129;28;20080;-77
2023/10/02 06:59:53;;;;;;;14.50;8.07;;;;;;;17.33;61.99;97378.31;5052875;28;20116;-79
2023/10/02 07:02:24;;;;;;;13.98;7.43;;;;;;;17.50;61.94;97384.78;5052709;28;20057;-77
2023/10/02 07:04:53;;;;;;;16.80;7.63;;;;;;;17.70;61.66;97382.06;5051572;28;20045;-77
2023/10/02 07:07:24;;;;;;;14.40;6.90;;;;;;;17.86;61.22;97389.56;5051897;28;20518;-77
2023/10/02 07:09:54;;;;;;;15.67;7.30;;;;;;;18.03;60.96;97389.91;5053523;28;20077;-77
2023/10/02 07:12:27;;;;;;;15.30;7.63;;;;;;;18.20;60.35;97386.78;5056350;28;20420;-77
2023/10/02 07:15:10;;;;;;;18.75;7.63;;;;;;;18.38;60.24;97381.59;5056837;28;20110;-77
2023/10/02 07:17:47;;;;;;;15.32;7.53;;;;;;;18.62;59.78;97382.66;5056544;28;20045;-78
2023/10/02 07:20:17;;;;;;;15.30;7.63;;;;;;;18.86;59.16;97385.59;5062876;28;20420;-79
2023/10/02 07:22:45;;;;;;;14.38;7.70;;;;;;;19.07;58.78;97379.13;5061775;28;20049;-80
2023/10/02 07:25:20;;;;;;;13.75;7.50;;;;;;;19.27;58.24;97387.69;5061347;28;20048;-80
2023/10/02 07:27:49;;;;;;;18.95;7.78;;;;;;;19.49;57.73;97387.28;5060865;28;20083;-80
2023/10/02 07:30:26;;;;;;;16.38;7.85;;;;;;;19.74;57.19;97382.75;5056878;28;20076;-80
2023/10/02 07:33:02;;;;;;;17.92;7.88;;;;;;;20.11;56.61;97379.25;5057107;28;20052;-77
2023/10/02 07:35:31;;;;;;;14.18;7.85;;;;;;;20.49;55.58;97381.59;5056707;28;20049;-78
2023/10/02 07:38:02;;;;;;;22.63;8.35;;;;;;;20.76;54.95;97375.94;5058725;28;20049;-78
2023/10/02 07:43:14;;;;;;;14.55;8.35;;;;;;;21.19;54.68;97382.78;5059653;28;20060;-78
2023/10/02 07:45:44;;;;;;;14.25;7.57;;;;;;;21.45;53.72;97383.38;5060426;28;20045;-78
2023/10/02 07:48:12;;;;;;;17.77;7.25;;;;;;;21.71;53.12;97372.28;5058525;28;20049;-78
2023/10/02 07:50:43;;;;;;;14.43;7.90;;;;;;;22.02;52.69;97376.34;5058594;28;20068;-78
2023/10/02 07:53:12;;;;;;;14.80;8.25;;;;;;;22.35;51.97;97377.53;5058199;28;20052;-78
2023/10/02 07:55:46;;;;;;;16.33;8.75;;;;;;;22.71;51.07;97374.69;5059638;28;20049;-78
2023/10/02 07:58:17;;;;;;;13.70;7.60;;;;;;;23.35;49.62;97375.19;5058221;28;20519;-78
2023/10/02 08:00:49;;;;;;;13.50;7.47;;;;;;;24.26;46.84;97374.72;5058003;28;20099;-78
2023/10/02 08:03:32;;;;;;;14.40;7.60;;;;;;;25.17;45.41;97377.69;5058200;28;20107;-78
2023/10/02 08:06:20;;;;;;;16.33;8.32;;;;;;;25.80;43.68;97375.94;5057900;28;20436;-78
2023/10/02 08:09:24;;;;;;;13.13;7.43;;;;;;;25.61;44.05;97377.44;5057782;28;20084;-78
2023/10/02 08:11:35;;;;;;;14.23;8.32;;;;;;;25.34;44.79;97375.66;5061881;28;20041;-78
2023/10/02 08:14:03;;;;;;;13.77;7.20;;;;;;;25.21;44.99;97370.78;5057688;28;20049;-78
2023/10/02 08:16:58;;;;;;;13.23;7.13;;;;;;;25.26;44.66;97362.81;5057209;28;20052;-78
2023/10/02 08:19:21;;;;;;;13.18;7.28;;;;;;;25.56;44.49;97359.53;5057823;28;20048;-78
2023/10/02 08:21:49;;;;;;;18.33;7.80;;;;;;;25.82;43.63;97365.78;5057244;28;20053;-78
2023/10/02 08:24:18;;;;;;;14.18;6.85;;;;;;;26.05;43.13;97363.75;5057395;28;20057;-78
2023/10/02 08:26:46;;;;;;;12.95;6.78;;;;;;;26.25;43.02;97355.78;5056518;28;20558;-78
2023/10/02 08:29:15;;;;;;;15.52;7.95;;;;;;;26.41;42.34;97364.63;5056729;28;20106;-78
2023/10/02 08:31:48;;;;;;;13.38;7.95;;;;;;;26.46;42.40;97361.19;5056691;28;20482;-77
2023/10/02 08:34:20;;;;;;;15.15;7.97;;;;;;;26.53;42.28;97364.41;5056248;28;20049;-78
2023/10/02 08:36:54;;;;;;;13.57;7.90;;;;;;;26.58;42.44;97360.94;5056211;28;20497;-79
2023/10/02 08:39:22;;;;;;;16.25;7.97;;;;;;;26.62;42.14;97349.44;5068899;28;20428;-79
2023/10/02 08:41:51;;;;;;;13.35;7.43;;;;;;;26.67;41.86;97352.13;5058041;28;20136;-79
2023/10/02 08:44:22;;;;;;;15.43;8.70;;;;;;;26.75;42.15;97356.16;5057820;28;20056;-79
2023/10/02 08:46:55;;;;;;;15.23;7.88;;;;;;;26.83;41.84;97344.09;5057710;28;20056;-79
2023/10/02 08:49:25;;;;;;;11.13;7.35;;;;;;;26.95;41.55;97344.63;5056856;28;20052;-78
2023/10/02 08:51:53;;;;;;;13.23;7.68;;;;;;;27.09;41.71;97348.38;5056745;28;20490;-80
2023/10/02 08:54:27;;;;;;;15.73;7.95;;;;;;;27.29;40.68;97342.19;5055844;28;20089;-80
2023/10/02 08:57:06;;;;;;;13.43;7.30;;;;;;;27.49;40.67;97345.91;5056216;28;20091;-80
2023/10/02 08:59:38;;;;;;;12.88;7.53;;;;;;;27.73;40.44;97346.09;5056356;28;20394;-80
2023/10/02 09:02:11;;;;;;;;;;;;;;;28.07;40.44;97358.81;5056339;28;20095;-80
2023/10/02 09:04:40;;;;;;;15.38;7.88;;;;;;;28.54;38.91;97355.63;5056275;28;19925;-80
2023/10/02 09:07:22;;;;;;;14.98;8.13;;;;;;;29.08;38.18;97353.84;5056591;28;20099;-80
2023/10/02 09:10:03;;;;;;;;;;;;;;;29.57;38.40;97360.09;5057070;28;20081;-80
2023/10/02 09:12:31;;;;;;;15.68;8.52;;;;;;;29.89;37.09;97356.78;5056278;28;19924;-80
2023/10/02 09:15:24;;;;;;;16.20;8.82;;;;;;;30.36;36.36;97352.41;5055704;28;20435;-80
2023/10/02 09:18:17;;;;;;;15.48;8.55;;;;;;;30.99;35.16;97355.75;5056069;28;20049;-80
2023/10/02 09:20:53;;;;;;;12.90;7.88;;;;;;;31.43;33.98;97359.06;5069091;28;20197;-80
2023/10/02 09:23:24;;;;;;;15.15;8.00;;;;;;;31.61;33.88;97341.97;5074404;28;20063;-80
2023/10/02 09:26:16;;;;;;;13.32;7.93;;;;;;;31.94;32.77;97350.72;5060341;28;20049;-81
2023/10/02 09:28:58;;;;;;;14.57;8.82;;;;;;;32.28;32.90;97344.09;5056530;28;20049;-80
2023/10/02 09:31:30;;;;;;;14.88;7.60;;;;;;;32.63;32.27;97337.09;5056691;28;20057;-80
2023/10/02 09:34:10;;;;;;;15.40;8.85;;;;;;;32.83;31.59;97341.19;5054880;28;20048;-80
2023/10/02 09:37:11;;;;;;;16.10;8.93;;;;;;;33.03;31.45;97333.66;5055820;28;20048;-81
2023/10/02 09:39:59;;;;;;;14.77;9.07;;;;;;;33.29;31.33;97331.13;5055749;28;20064;-80
2023/10/02 09:42:30;;;;;;;12.65;8.40;;;;;;;33.43;31.16;97320.19;5055006;28;20209;-81
2023/10/02 09:44:58;;;;;;;17.33;10.00;;;;;;;33.62;30.66;97320.75;5055982;28;20061;-80
2023/10/02 09:47:26;;;;;;;17.25;10.50;;;;;;;33.74;29.89;97324.75;5055771;28;20522;-80
2023/10/02 09:50:10;;;;;;;17.35;10.60;;;;;;;33.78;29.58;97321.13;5056123;28;20447;-80
2023/10/02 09:52:57;;;;;;;20.60;11.27;;;;;;;33.83;28.78;97317.47;5055555;28;20107;-81
2023/10/02 09:55:40;;;;;;;20.13;11.50;;;;;;;33.84;28.61;97319.06;5055294;28;20057;-80
2023/10/02 09:58:26;;;;;;;18.35;10.52;;;;;;;33.89;28.09;97305.38;5055737;28;20048;-81
2023/10/02 10:01:33;;;;;;;20.05;11.05;;;;;;;33.76;28.00;97307.13;5056341;28;20049;-81
2023/10/02 10:04:07;;;;;;;19.70;11.98;;;;;;;33.83;28.61;97306.66;5052746;28;20103;-80
2023/10/02 10:06:48;;;;;;;17.92;11.38;;;;;;;33.90;28.34;97303.47;5056204;28;20049;-80
2023/10/02 10:09:25;;;;;;;23.23;12.93;;;;;;;33.87;26.74;97307.59;5055229;28;20075;-80
2023/10/02 10:14:42;;;;;;;19.88;11.63;;;;;;;33.85;26.28;97288.19;5056283;28;20128;-80
2023/10/02 10:17:55;;;;;;;20.45;12.45;;;;;;;34.10;26.49;97299.34;5056155;28;20131;-81
2023/10/02 10:20:26;;;;;;;23.17;13.65;;;;;;;34.33;25.31;97294.59;5056352;28;20432;-81
2023/10/02 10:22:55;;;;;;;22.23;11.63;;;;;;;34.41;25.23;97294.56;5054555;28;20484;-81
2023/10/02 10:25:50;;;;;;;23.60;13.13;;;;;;;34.68;25.18;97298.09;5053502;28;20052;-81
2023/10/02 10:28:28;;;;;;;21.85;13.02;;;;;;;34.95;24.20;97290.69;5053897;28;20053;-80
2023/10/02 10:31:01;;;;;;;20.27;12.02;;;;;;;35.19;23.87;97290.94;5054323;28;20115;-80
2023/10/02 10:33:34;;;;;;;23.65;13.23;;;;;;;35.30;22.75;97290.59;5053761;28;20060;-81
2023/10/02 10:36:08;;;;;;;24.33;13.88;;;;;;;35.31;23.22;97284.03;5054893;28;20049;-80
2023/10/02 10:38:41;;;;;;;23.63;13.50;;;;;;;35.42;22.83;97285.25;5053472;28;20053;-81
2023/10/02 10:41:09;;;;;;;25.73;13.93;;;;;;;35.52;22.91;97284.88;5055070;28;20118;-81
2023/10/02 10:46:31;;;;;;;26.05;13.90;;;;;;;35.60;23.08;97280.50;5039933;28;20056;-81
2023/10/02 10:48:59;;;;;;;24.75;13.77;;;;;;;35.77;23.10;97282.34;5067009;28;20036;-81
2023/10/02 10:51:33;;;;;;;28.08;14.65;;;;;;;35.85;22.26;97273.38;5063681;28;20045;-81
2023/10/02 10:54:13;;;;;;;25.05;14.30;;;;;;;35.98;22.53;97272.31;5060309;28;20049;-81
2023/10/02 10:57:18;;;;;;;26.63;15.35;;;;;;;36.10;21.60;97271.56;5060005;28;20412;-81
2023/10/02 10:59:47;;;;;;;24.98;14.48;;;;;;;36.09;21.39;97268.06;5060098;28;20136;-81
2023/10/02 11:02:17;;;;;;;26.02;14.13;;;;;;;36.16;21.37;97266.75;5060130;28;20052;-81
2023/10/02 11:04:48;;;;;;;24.35;14.10;;;;;;;36.66;20.42;97268.53;5059068;28;20053;-81
2023/10/02 11:07:24;;;;;;;24.50;13.60;;;;;;;37.11;20.37;97267.75;5059428;28;20049;-81
2023/10/02 11:12:56;;;;;;;22.55;13.60;;;;;;;37.27;20.60;97257.75;5109254;27;20362;-81
2023/10/02 11:18:23;;;;;;;22.63;13.07;;;;;;;37.82;20.06;97246.59;5161832;27;1183491;-82
2023/10/02 11:20:54;;;;;;;23.55;13.23;;;;;;;37.94;20.52;97249.31;5180521;27;20362;-82
2023/10/02 11:23:37;;;;;;;22.83;12.82;;;;;;;37.89;19.97;97246.81;5180054;27;20050;-82
2023/10/02 11:26:11;;;;;;;25.42;14.00;;;;;;;38.03;19.65;97246.47;5195661;27;20072;-82
2023/10/02 11:28:40;;;;;;;23.17;14.23;;;;;;;38.12;19.42;97242.44;5195976;27;20091;-82
2023/10/02 11:31:30;;;;;;;24.48;14.55;;;;;;;38.06;19.61;97241.09;5158163;22;20044;-83
2023/10/02 11:34:11;;;;;;;25.58;14.45;;;;;;;38.06;19.22;97241.09;5095354;28;20135;-82
2023/10/02 11:36:52;;;;;;;26.73;15.32;;;;;;;38.30;19.44;97239.41;5094635;28;20052;-83
2023/10/02 11:39:29;;;;;;;24.08;13.27;;;;;;;38.78;19.64;97239.53;5093822;28;20048;-83
2023/10/02 11:42:00;;;;;;;24.13;13.88;;;;;;;39.57;18.78;97239.47;5093568;28;20111;-83
2023/10/02 11:44:33;;;;;;;23.10;13.60;;;;;;;40.66;17.65;97244.03;5092815;28;20052;-83
2023/10/02 11:47:02;;;;;;;22.77;14.45;;;;;;;41.93;17.23;97231.09;5094047;28;20121;-83
2023/10/02 11:49:36;;;;;;;26.10;15.17;;;;;;;43.05;15.42;97233.84;5093667;28;20062;-83
2023/10/02 11:52:07;;;;;;;23.58;14.52;;;;;;;44.02;14.82;97229.72;5092812;28;20307;-82
2023/10/02 11:54:39;;;;;;;25.40;14.45;;;;;;;44.74;14.91;97226.34;5093118;28;20397;-83
2023/10/02 11:57:12;;;;;;;22.88;14.57;;;;;;;45.12;13.92;97226.78;5092811;28;20461;-83
2023/10/02 11:59:47;;;;;;;25.30;15.10;;;;;;;45.58;14.20;97221.19;5092322;28;20564;-83
2023/10/02 12:02:20;;;;;;;27.85;14.80;;;;;;;45.84;13.95;97214.44;5092879;28;20048;-83
2023/10/02 12:04:53;;;;;;;21.90;14.32;;;;;;;45.23;13.44;97208.31;5092605;28;20527;-83
2023/10/02 12:07:22;;;;;;;21.73;13.27;;;;;;;43.90;14.64;97201.81;5093129;28;20098;-83
2023/10/02 12:09:53;;;;;;;22.55;14.85;;;;;;;42.38;16.13;97202.66;5092958;28;20052;-83
2023/10/02 12:12:22;;;;;;;22.92;14.27;;;;;;;41.05;17.49;97193.88;5093008;28;20049;-83
2023/10/02 12:14:51;;;;;;;24.35;14.45;;;;;;;39.76;18.16;97189.56;5093324;28;20059;-83
2023/10/02 12:17:25;;;;;;;22.85;14.95;;;;;;;38.70;19.54;97186.75;5093587;28;20085;-83
2023/10/02 12:20:03;;;;;;;26.83;14.20;;;;;;;37.85;20.74;97180.56;5093462;28;20048;-83
2023/10/02 12:22:34;;;;;;;24.90;14.93;;;;;;;37.16;20.99;97183.19;5093797;28;20086;-83
2023/10/02 12:25:04;;;;;;;25.38;14.40;;;;;;;36.65;21.58;97177.28;5093631;28;20052;-83